Orbital elements of SL-14 DEB
| Launched | 14 August 1991 |
| Flight ended | – |
| Launch site | Plesetsk Missile and Space Complex, Russia |
| Owner | Commonwealth of Independent States (former USSR) |
| NORAD ID | 45296 |
| Date fetched |
Epoch osculation |
Inc. [°] |
Ecc. | RA asc node [hr] |
Arg Peri. [°] |
Mean anom [°] |
Mean motion [rev/day] |
Abs. mag |
| Date fetched |
Epoch osculation |
Inc. [°] |
Ecc. | RA asc node [hr] |
Arg Peri. [°] |
Mean anom [°] |
Mean motion [rev/day] |
Abs. mag |
| 2026 May 04 17:57 | 2026 Apr 30 13:35:59 | 82.6313 | 0.02118 | 3.6552 | 41.4989 | 320.2034 | 13.79911 | – |
| 2026 May 03 17:57 | 2026 Apr 30 13:35:59 | 82.6313 | 0.02118 | 3.6552 | 41.4989 | 320.2034 | 13.79911 | – |
| 2026 May 02 17:57 | 2026 Apr 30 13:35:59 | 82.6313 | 0.02118 | 3.6552 | 41.4989 | 320.2034 | 13.79911 | – |
| 2026 May 01 17:56 | 2026 Apr 30 13:35:59 | 82.6313 | 0.02118 | 3.6552 | 41.4989 | 320.2034 | 13.79911 | – |
| 2026 Apr 30 17:56 | 2026 Apr 30 13:35:59 | 82.6313 | 0.02118 | 3.6552 | 41.4989 | 320.2034 | 13.79911 | – |
| 2026 Apr 29 17:57 | 2026 Apr 24 07:56:10 | 82.6326 | 0.02098 | 3.9796 | 57.9115 | 320.2034 | 13.79911 | – |
| 2026 Apr 28 17:56 | 2026 Apr 24 07:56:10 | 82.6326 | 0.02098 | 3.9796 | 57.9115 | 320.2034 | 13.79911 | – |
| 2026 Apr 27 17:58 | 2026 Apr 24 07:56:10 | 82.6326 | 0.02098 | 3.9796 | 57.9115 | 320.2034 | 13.79911 | – |
| 2026 Apr 26 17:58 | 2026 Apr 24 07:56:10 | 82.6326 | 0.02098 | 3.9796 | 57.9115 | 320.2034 | 13.79911 | – |
| 2026 Apr 25 17:58 | 2026 Apr 24 07:56:10 | 82.6326 | 0.02098 | 3.9796 | 57.9115 | 320.2034 | 13.79911 | – |
| 2026 Apr 24 17:59 | 2026 Apr 24 07:56:10 | 82.6326 | 0.02098 | 3.9796 | 57.9115 | 320.2034 | 13.79911 | – |
| 2026 Apr 23 17:57 | 2026 Apr 19 07:50:50 | 82.6348 | 0.02074 | 4.2398 | 71.2876 | 320.2034 | 13.79911 | – |
| 2026 Apr 22 17:57 | 2026 Apr 19 07:50:50 | 82.6348 | 0.02074 | 4.2398 | 71.2876 | 320.2034 | 13.79911 | – |
| 2026 Apr 21 17:57 | 2026 Apr 19 07:50:50 | 82.6348 | 0.02074 | 4.2398 | 71.2876 | 320.2034 | 13.79911 | – |
| 2026 Apr 20 17:57 | 2026 Apr 19 07:50:50 | 82.6348 | 0.02074 | 4.2398 | 71.2876 | 320.2034 | 13.79911 | – |
| 2026 Apr 19 17:58 | 2026 Apr 19 07:50:50 | 82.6348 | 0.02074 | 4.2398 | 71.2876 | 320.2034 | 13.79911 | – |
| 2026 Apr 18 17:56 | 2026 Apr 12 20:56:23 | 82.6356 | 0.02041 | 4.5752 | 88.8698 | 320.2034 | 13.79911 | – |
| 2026 Apr 16 17:57 | 2026 Apr 12 20:56:23 | 82.6356 | 0.02041 | 4.5752 | 88.8698 | 320.2034 | 13.79911 | – |
| 2026 Apr 14 17:57 | 2026 Apr 12 20:56:23 | 82.6356 | 0.02041 | 4.5752 | 88.8698 | 320.2034 | 13.79911 | – |
| 2026 Apr 13 17:57 | 2026 Apr 12 20:56:23 | 82.6356 | 0.02041 | 4.5752 | 88.8698 | 320.2034 | 13.79911 | – |
| 2026 Apr 12 17:57 | 2026 Apr 08 09:01:12 | 82.6381 | 0.02018 | 4.8088 | 101.3415 | 320.2034 | 13.79911 | – |
| 2026 Apr 11 17:57 | 2026 Apr 08 09:01:12 | 82.6381 | 0.02018 | 4.8088 | 101.3415 | 320.2034 | 13.79911 | – |
| 2026 Apr 10 17:58 | 2026 Apr 08 09:01:12 | 82.6381 | 0.02018 | 4.8088 | 101.3415 | 320.2034 | 13.79911 | – |
| 2026 Apr 09 18:01 | 2026 Apr 08 09:01:12 | 82.6381 | 0.02018 | 4.8088 | 101.3415 | 320.2034 | 13.79911 | – |
| 2026 Apr 08 17:57 | 2026 Apr 08 09:01:12 | 82.6381 | 0.02018 | 4.8088 | 101.3415 | 320.2034 | 13.79911 | – |
| 2026 Apr 07 17:57 | 2026 Apr 02 05:03:19 | 82.6364 | 0.01991 | 5.1289 | 118.6760 | 320.2034 | 13.79911 | – |